createdAt,value
2023-09-17T00:01:17.101Z,5.90
2023-09-17T00:03:44.359Z,5.80
2023-09-17T00:06:11.393Z,5.10
2023-09-17T00:08:38.532Z,5.60
2023-09-17T00:11:06.518Z,5.30
2023-09-17T00:13:33.691Z,6.20
2023-09-17T00:16:01.154Z,5.80
2023-09-17T00:18:28.517Z,5.20
2023-09-17T00:20:55.786Z,5.70
2023-09-17T00:23:22.792Z,5.10
2023-09-17T00:25:49.880Z,4.70
2023-09-17T00:28:16.855Z,4.70
2023-09-17T00:30:45.219Z,4.50
2023-09-17T00:33:12.452Z,5.00
2023-09-17T00:35:39.480Z,4.90
2023-09-17T00:38:06.604Z,5.40
2023-09-17T00:40:37.958Z,4.70
2023-09-17T00:43:23.668Z,5.50
2023-09-17T00:46:53.679Z,5.10
2023-09-17T00:50:26.044Z,5.40
2023-09-17T00:53:55.592Z,4.40
2023-09-17T00:57:27.716Z,5.10
2023-09-17T01:00:57.482Z,5.70
2023-09-17T01:04:29.677Z,5.10
2023-09-17T01:08:00.041Z,5.00
2023-09-17T01:11:31.729Z,5.20
2023-09-17T01:15:01.731Z,5.60
2023-09-17T01:18:33.422Z,5.20
2023-09-17T01:22:04.096Z,5.10
2023-09-17T01:25:35.190Z,5.20
2023-09-17T01:29:05.122Z,5.10
2023-09-17T01:32:37.218Z,5.00
2023-09-17T01:36:07.925Z,5.00
2023-09-17T01:39:39.295Z,4.80
2023-09-17T01:43:08.958Z,5.50
2023-09-17T01:46:40.867Z,5.30
2023-09-17T01:50:11.174Z,5.00
2023-09-17T01:53:43.269Z,5.10
2023-09-17T01:57:13.158Z,4.90
2023-09-17T02:00:44.141Z,5.80
2023-09-17T02:04:14.058Z,4.50
2023-09-17T02:07:45.136Z,4.70
2023-09-17T02:11:15.819Z,4.60
2023-09-17T02:14:48.264Z,5.40
2023-09-17T02:18:18.660Z,5.90
2023-09-17T02:21:49.078Z,4.60
2023-09-17T02:25:19.014Z,5.20
2023-09-17T02:28:48.882Z,5.00
2023-09-17T02:32:12.693Z,4.90
2023-09-17T02:35:36.426Z,5.30
2023-09-17T02:39:00.468Z,5.20
2023-09-17T02:42:24.498Z,6.00
2023-09-17T02:45:49.977Z,4.60
2023-09-17T02:49:19.607Z,5.20
2023-09-17T02:52:47.418Z,4.70
2023-09-17T02:56:16.845Z,5.00
2023-09-17T02:59:44.957Z,4.80
2023-09-17T03:03:15.141Z,4.40
2023-09-17T03:06:42.882Z,4.50
2023-09-17T03:10:13.280Z,4.80
2023-09-17T03:13:41.837Z,4.90
2023-09-17T03:17:11.413Z,4.80
2023-09-17T03:20:39.722Z,4.80
2023-09-17T03:24:03.731Z,4.60
2023-09-17T03:27:28.088Z,5.10
2023-09-17T03:30:52.382Z,5.70
2023-09-17T03:34:16.269Z,5.60
2023-09-17T03:37:40.286Z,5.60
2023-09-17T03:41:04.196Z,4.60
2023-09-17T03:44:34.218Z,3.80
2023-09-17T03:48:06.284Z,4.30
2023-09-17T03:51:36.318Z,4.70
2023-09-17T03:55:00.303Z,4.00
2023-09-17T03:58:31.017Z,4.70
2023-09-17T04:02:01.928Z,5.10
2023-09-17T04:05:33.166Z,5.90
2023-09-17T04:09:05.373Z,5.70
2023-09-17T04:12:32.946Z,4.40
2023-09-17T04:16:05.572Z,5.70
2023-09-17T04:19:36.238Z,6.10
2023-09-17T04:23:08.140Z,5.90
2023-09-17T04:26:38.220Z,6.00
2023-09-17T04:30:14.348Z,6.90
2023-09-17T04:33:50.232Z,6.60
2023-09-17T04:37:25.019Z,6.10
2023-09-17T04:40:57.689Z,5.80
2023-09-17T04:44:29.685Z,5.80
2023-09-17T04:48:00.199Z,7.00
2023-09-17T04:51:33.198Z,7.60
2023-09-17T04:55:05.007Z,7.50
2023-09-17T04:58:36.337Z,8.20
2023-09-17T05:02:09.600Z,8.30
2023-09-17T05:05:44.152Z,9.30
2023-09-17T05:09:19.018Z,10.20
2023-09-17T05:12:46.774Z,10.10
2023-09-17T05:16:16.869Z,9.80
2023-09-17T05:19:41.369Z,9.20
2023-09-17T05:23:05.263Z,10.40
2023-09-17T05:26:35.113Z,9.70
2023-09-17T05:30:06.683Z,9.60
2023-09-17T05:33:38.173Z,9.80
2023-09-17T05:37:08.209Z,9.70
2023-09-17T05:40:39.610Z,10.40
2023-09-17T05:44:09.943Z,9.90
2023-09-17T05:47:40.404Z,9.70
2023-09-17T05:51:10.138Z,10.30
2023-09-17T05:54:41.744Z,10.10
2023-09-17T05:58:12.776Z,9.60
2023-09-17T06:01:42.995Z,10.20
2023-09-17T06:05:13.462Z,9.20
2023-09-17T06:07:42.785Z,9.10
2023-09-17T06:10:10.100Z,10.10
2023-09-17T06:12:37.210Z,10.70
2023-09-17T06:15:06.356Z,9.70
2023-09-17T06:17:33.612Z,9.50
2023-09-17T06:20:00.627Z,9.40
2023-09-17T06:22:27.858Z,10.00
2023-09-17T06:24:56.027Z,8.80
2023-09-17T06:27:22.977Z,9.70
2023-09-17T06:29:50.284Z,9.40
2023-09-17T06:32:17.776Z,9.50
2023-09-17T06:34:44.703Z,9.00
2023-09-17T06:37:12.306Z,9.30
2023-09-17T06:39:39.199Z,11.10
2023-09-17T06:42:06.368Z,10.60
2023-09-17T06:44:34.151Z,12.40
2023-09-17T06:47:01.380Z,13.60
2023-09-17T06:49:28.736Z,14.50
2023-09-17T06:51:56.397Z,21.30
2023-09-17T06:54:23.358Z,30.20
2023-09-17T06:56:50.442Z,25.90
2023-09-17T06:59:17.496Z,22.50
2023-09-17T07:01:46.169Z,23.60
2023-09-17T07:04:13.637Z,24.90
2023-09-17T07:06:40.966Z,23.50
2023-09-17T07:09:08.491Z,22.90
2023-09-17T07:11:35.605Z,20.90
2023-09-17T07:14:10.016Z,20.80
2023-09-17T07:16:37.295Z,21.90
2023-09-17T07:19:07.049Z,23.20
2023-09-17T07:21:34.088Z,23.60
2023-09-17T07:24:01.211Z,23.20
2023-09-17T07:26:28.751Z,21.30
2023-09-17T07:28:56.231Z,19.50
2023-09-17T07:31:23.435Z,17.50
2023-09-17T07:33:50.725Z,17.00
2023-09-17T07:36:18.133Z,14.70
2023-09-17T07:38:45.079Z,10.90
2023-09-17T07:41:12.392Z,11.70
2023-09-17T07:43:39.531Z,15.90
2023-09-17T07:46:06.799Z,10.70
2023-09-17T07:48:33.704Z,8.30
2023-09-17T07:51:01.460Z,9.00
2023-09-17T07:53:28.671Z,8.40
2023-09-17T07:55:56.879Z,8.80
2023-09-17T07:58:24.216Z,9.80
2023-09-17T08:00:51.250Z,7.30
2023-09-17T08:03:18.353Z,8.40
2023-09-17T08:05:47.273Z,7.40
2023-09-17T08:08:15.332Z,7.40
2023-09-17T08:10:42.594Z,7.50
2023-09-17T08:13:09.645Z,8.20
2023-09-17T08:15:37.096Z,7.00
2023-09-17T08:18:04.275Z,7.20
2023-09-17T08:20:31.476Z,6.70
2023-09-17T08:22:59.286Z,6.60
2023-09-17T08:25:27.302Z,7.60
2023-09-17T08:27:54.452Z,6.90
2023-09-17T08:30:21.850Z,6.60
2023-09-17T08:32:49.493Z,6.40
2023-09-17T08:35:16.636Z,6.60
2023-09-17T08:37:43.845Z,7.60
2023-09-17T08:40:15.406Z,6.00
2023-09-17T08:42:42.773Z,6.80
2023-09-17T08:45:10.581Z,6.30
2023-09-17T08:47:38.373Z,7.30
2023-09-17T08:50:06.525Z,5.10
2023-09-17T08:52:34.062Z,6.40
2023-09-17T08:55:02.762Z,9.70
2023-09-17T08:57:30.324Z,6.60
2023-09-17T09:00:09.031Z,6.10
2023-09-17T09:02:45.189Z,6.50
2023-09-17T09:05:15.658Z,5.30
2023-09-17T09:07:44.412Z,5.20
2023-09-17T09:10:13.340Z,4.40
2023-09-17T09:12:40.911Z,5.30
2023-09-17T09:15:10.607Z,5.20
2023-09-17T09:17:39.590Z,5.20
2023-09-17T09:20:10.445Z,4.50
2023-09-17T09:22:38.244Z,5.20
2023-09-17T09:25:06.976Z,5.10
2023-09-17T09:27:34.028Z,4.00
2023-09-17T09:30:01.728Z,4.60
2023-09-17T09:32:29.067Z,4.50
2023-09-17T09:34:56.065Z,4.80
2023-09-17T09:37:23.778Z,4.50
2023-09-17T09:39:50.888Z,4.50
2023-09-17T09:42:17.964Z,4.10
2023-09-17T09:44:45.112Z,4.60
2023-09-17T09:47:12.065Z,4.70
2023-09-17T09:49:43.081Z,4.40
2023-09-17T09:52:12.324Z,4.80
2023-09-17T09:54:43.174Z,4.40
2023-09-17T09:57:16.778Z,4.80
2023-09-17T09:59:46.624Z,4.50
2023-09-17T10:02:14.909Z,4.70
2023-09-17T10:04:43.873Z,4.40
2023-09-17T10:07:10.801Z,5.00
2023-09-17T10:09:37.944Z,5.00
2023-09-17T10:12:05.330Z,4.80
2023-09-17T10:14:35.855Z,4.70
2023-09-17T10:17:02.855Z,4.60
2023-09-17T10:19:30.389Z,4.40
2023-09-17T10:21:57.462Z,4.00
2023-09-17T10:24:24.461Z,4.20
2023-09-17T10:26:51.477Z,4.20
2023-09-17T10:29:18.805Z,3.70
2023-09-17T10:31:45.756Z,4.00
2023-09-17T10:34:14.115Z,4.30
2023-09-17T10:36:41.309Z,3.90
2023-09-17T10:39:10.432Z,4.00
2023-09-17T10:41:37.950Z,4.40
2023-09-17T10:44:05.359Z,4.10
2023-09-17T10:46:32.572Z,4.10
2023-09-17T10:49:00.018Z,3.80
2023-09-17T10:51:27.866Z,3.60
2023-09-17T10:53:55.185Z,3.80
2023-09-17T10:56:22.227Z,3.80
2023-09-17T10:58:52.712Z,4.20
2023-09-17T11:01:27.790Z,4.40
2023-09-17T11:04:22.957Z,4.50
2023-09-17T11:06:50.532Z,3.60
2023-09-17T11:09:17.853Z,3.40
2023-09-17T11:11:44.824Z,4.30
2023-09-17T11:14:13.129Z,3.40
2023-09-17T11:16:40.243Z,4.00
2023-09-17T11:19:10.695Z,3.60
2023-09-17T11:21:39.686Z,4.10
2023-09-17T11:24:11.030Z,3.70
2023-09-17T11:26:39.956Z,4.20
2023-09-17T11:29:07.766Z,3.80
2023-09-17T11:31:36.782Z,4.30
2023-09-17T11:34:06.441Z,3.60
2023-09-17T11:36:33.534Z,3.40
2023-09-17T11:39:04.432Z,3.20
2023-09-17T11:41:36.662Z,3.70
2023-09-17T11:44:04.905Z,3.60
2023-09-17T11:46:34.069Z,3.40
2023-09-17T11:49:02.504Z,3.50
2023-09-17T11:51:30.865Z,3.50
2023-09-17T11:54:06.015Z,3.40
2023-09-17T11:56:34.775Z,3.70
2023-09-17T11:59:09.886Z,3.20
2023-09-17T12:01:39.459Z,3.40
2023-09-17T12:04:07.821Z,3.70
2023-09-17T12:06:36.860Z,3.50
2023-09-17T12:09:11.454Z,3.30
2023-09-17T12:11:38.514Z,3.20
2023-09-17T12:14:07.204Z,3.60
2023-09-17T12:16:35.281Z,3.40
2023-09-17T12:19:15.942Z,3.30
2023-09-17T12:21:49.671Z,3.40
2023-09-17T12:24:44.890Z,3.80
2023-09-17T12:27:35.671Z,3.30
2023-09-17T12:30:06.723Z,3.60
2023-09-17T12:32:34.848Z,3.30
2023-09-17T12:35:03.800Z,3.30
2023-09-17T12:37:31.053Z,3.40
2023-09-17T12:39:58.190Z,3.40
2023-09-17T12:42:25.319Z,3.60
2023-09-17T12:44:53.280Z,3.60
2023-09-17T12:47:20.719Z,3.60
2023-09-17T12:49:47.993Z,3.20
2023-09-17T12:52:16.340Z,3.50
2023-09-17T12:54:43.653Z,3.50
2023-09-17T12:57:10.632Z,3.10
2023-09-17T12:59:41.729Z,3.10
2023-09-17T13:02:09.165Z,3.40
2023-09-17T13:04:37.541Z,3.50
2023-09-17T13:07:06.565Z,3.30
2023-09-17T13:09:33.503Z,3.70
2023-09-17T13:12:03.809Z,2.80
2023-09-17T13:14:31.997Z,2.70
2023-09-17T13:16:59.054Z,3.20
2023-09-17T13:19:26.883Z,3.10
2023-09-17T13:21:53.957Z,3.30
2023-09-17T13:24:21.411Z,3.20
2023-09-17T13:26:48.385Z,3.20
2023-09-17T13:29:15.322Z,3.60
2023-09-17T13:31:42.554Z,3.40
2023-09-17T13:34:11.067Z,3.00
2023-09-17T13:36:38.590Z,3.40
2023-09-17T13:39:05.749Z,3.00
2023-09-17T13:41:32.869Z,4.00
2023-09-17T13:43:59.983Z,3.60
2023-09-17T13:46:28.351Z,3.10
2023-09-17T13:48:55.849Z,3.40
2023-09-17T13:51:22.881Z,3.70
2023-09-17T13:53:49.872Z,3.30
2023-09-17T13:56:16.907Z,3.30
2023-09-17T13:58:44.263Z,3.30
2023-09-17T14:01:12.856Z,3.40
2023-09-17T14:03:39.786Z,3.80
2023-09-17T14:06:07.078Z,3.30
2023-09-17T14:08:34.864Z,3.50
2023-09-17T14:11:03.841Z,3.30
2023-09-17T14:13:31.203Z,3.00
2023-09-17T14:15:58.112Z,3.10
2023-09-17T14:18:25.087Z,3.80
2023-09-17T14:20:52.122Z,3.50
2023-09-17T14:23:19.110Z,3.40
2023-09-17T14:25:46.051Z,3.80
2023-09-17T14:28:13.376Z,3.70
2023-09-17T14:30:40.435Z,3.40
2023-09-17T14:33:07.414Z,3.80
2023-09-17T14:35:34.754Z,5.40
2023-09-17T14:38:01.967Z,3.50
2023-09-17T14:40:29.387Z,3.60
2023-09-17T14:42:56.836Z,3.00
2023-09-17T14:45:23.918Z,3.10
2023-09-17T14:48:09.341Z,3.40
2023-09-17T14:50:54.929Z,3.20
2023-09-17T14:53:49.165Z,3.50
2023-09-17T14:56:42.018Z,3.70
2023-09-17T14:59:33.829Z,3.40
2023-09-17T15:02:19.438Z,3.30
2023-09-17T15:05:05.599Z,3.50
2023-09-17T15:07:58.250Z,4.00
2023-09-17T15:10:44.356Z,3.70
2023-09-17T15:13:29.854Z,4.10
2023-09-17T15:16:16.113Z,3.30
2023-09-17T15:19:01.638Z,3.30
2023-09-17T15:21:47.716Z,3.30
2023-09-17T15:24:33.764Z,3.30
2023-09-17T15:27:25.909Z,3.20
2023-09-17T15:30:12.359Z,3.80
2023-09-17T15:32:58.374Z,3.40
2023-09-17T15:35:44.236Z,3.30
2023-09-17T15:38:38.358Z,3.60
2023-09-17T15:41:31.250Z,3.10
2023-09-17T15:44:17.438Z,3.60
2023-09-17T15:47:03.160Z,4.10
2023-09-17T15:49:51.449Z,3.60
2023-09-17T15:52:44.025Z,4.00
2023-09-17T15:55:38.161Z,3.20
2023-09-17T15:58:30.381Z,3.80
2023-09-17T16:01:16.479Z,3.70
2023-09-17T16:04:40.467Z,4.00
2023-09-17T16:08:04.976Z,4.20
2023-09-17T16:11:28.958Z,4.00
2023-09-17T16:14:52.892Z,3.40
2023-09-17T16:18:20.777Z,3.80
2023-09-17T16:21:44.809Z,4.80
2023-09-17T16:25:08.488Z,3.90
2023-09-17T16:28:38.230Z,4.00
2023-09-17T16:32:05.777Z,3.70
2023-09-17T16:35:36.209Z,4.40
2023-09-17T16:39:04.066Z,3.90
2023-09-17T16:42:33.479Z,4.30
2023-09-17T16:46:01.444Z,4.00
2023-09-17T16:49:31.377Z,4.40
2023-09-17T16:52:59.035Z,5.10
2023-09-17T16:56:28.742Z,4.40
2023-09-17T16:59:56.563Z,4.40
2023-09-17T17:03:26.538Z,4.30
2023-09-17T17:06:54.229Z,4.50
2023-09-17T17:10:23.662Z,4.50
2023-09-17T17:13:51.534Z,4.50
2023-09-17T17:17:22.313Z,4.70
2023-09-17T17:20:50.256Z,4.20
2023-09-17T17:24:19.805Z,5.20
2023-09-17T17:27:47.873Z,4.80
2023-09-17T17:31:17.580Z,4.50
2023-09-17T17:34:45.672Z,5.30
2023-09-17T17:38:15.578Z,4.60
2023-09-17T17:41:43.182Z,4.80
2023-09-17T17:45:11.335Z,5.20
2023-09-17T17:48:41.667Z,5.10
2023-09-17T17:52:11.065Z,5.00
2023-09-17T17:55:39.054Z,5.30
2023-09-17T17:59:09.208Z,5.00
2023-09-17T18:02:37.061Z,5.40
2023-09-17T18:06:08.784Z,5.60
2023-09-17T18:08:39.342Z,5.30
2023-09-17T18:11:06.626Z,5.50
2023-09-17T18:13:33.909Z,5.60
2023-09-17T18:16:01.220Z,6.10
2023-09-17T18:18:29.043Z,5.10
2023-09-17T18:20:56.101Z,5.30
2023-09-17T18:23:24.878Z,5.70
2023-09-17T18:25:52.228Z,5.80
2023-09-17T18:28:19.457Z,5.50
2023-09-17T18:30:46.756Z,5.50
2023-09-17T18:33:14.023Z,6.50
2023-09-17T18:35:41.172Z,5.60
2023-09-17T18:38:08.372Z,5.30
2023-09-17T18:40:35.556Z,6.00
2023-09-17T18:43:03.128Z,5.40
2023-09-17T18:45:30.346Z,5.20
2023-09-17T18:47:57.946Z,4.70
2023-09-17T18:50:25.190Z,5.70
2023-09-17T18:52:52.325Z,5.30
2023-09-17T18:55:19.500Z,5.40
2023-09-17T18:57:46.798Z,4.80
2023-09-17T19:00:16.011Z,6.10
2023-09-17T19:02:44.712Z,5.80
2023-09-17T19:05:13.049Z,5.90
2023-09-17T19:07:40.216Z,5.40
2023-09-17T19:10:11.703Z,5.30
2023-09-17T19:12:38.976Z,6.20
2023-09-17T19:15:07.484Z,5.30
2023-09-17T19:17:35.416Z,5.60
2023-09-17T19:20:03.215Z,5.70
2023-09-17T19:22:30.898Z,5.10
2023-09-17T19:24:58.140Z,5.20
2023-09-17T19:27:25.222Z,5.60
2023-09-17T19:29:52.236Z,6.40
2023-09-17T19:32:20.453Z,6.30
2023-09-17T19:34:47.632Z,5.60
2023-09-17T19:37:15.723Z,6.10
2023-09-17T19:39:42.774Z,5.90
2023-09-17T19:42:09.786Z,6.00
2023-09-17T19:44:37.971Z,6.30
2023-09-17T19:47:05.913Z,5.70
2023-09-17T19:49:32.924Z,5.70
2023-09-17T19:51:59.858Z,6.10
2023-09-17T19:54:26.921Z,6.30
2023-09-17T19:56:53.878Z,5.90
2023-09-17T19:59:21.184Z,5.60
2023-09-17T20:01:49.281Z,6.20
2023-09-17T20:04:16.423Z,6.10
2023-09-17T20:06:53.824Z,6.50
2023-09-17T20:09:22.166Z,5.90
2023-09-17T20:11:49.610Z,5.10
2023-09-17T20:14:16.688Z,6.10
2023-09-17T20:16:43.838Z,7.00
2023-09-17T20:19:12.124Z,6.30
2023-09-17T20:21:39.680Z,6.50
2023-09-17T20:24:07.336Z,6.80
2023-09-17T20:26:36.877Z,6.20
2023-09-17T20:29:04.784Z,5.70
2023-09-17T20:31:31.853Z,6.00
2023-09-17T20:34:00.498Z,5.80
2023-09-17T20:36:27.636Z,6.20
2023-09-17T20:38:54.926Z,6.00
2023-09-17T20:41:23.769Z,6.10
2023-09-17T20:43:50.904Z,6.40
2023-09-17T20:46:18.150Z,6.70
2023-09-17T20:48:45.217Z,6.70
2023-09-17T20:51:12.306Z,6.50
2023-09-17T20:53:39.328Z,6.70
2023-09-17T20:56:06.310Z,7.00
2023-09-17T20:58:35.540Z,6.80
2023-09-17T21:01:02.684Z,6.80
2023-09-17T21:03:30.349Z,5.90
2023-09-17T21:05:57.853Z,6.50
2023-09-17T21:08:25.265Z,6.70
2023-09-17T21:10:52.605Z,6.80
2023-09-17T21:13:19.654Z,6.40
2023-09-17T21:15:46.625Z,5.90
2023-09-17T21:18:14.052Z,7.50
2023-09-17T21:20:41.094Z,8.10
2023-09-17T21:23:08.463Z,7.60
2023-09-17T21:25:35.716Z,6.20
2023-09-17T21:28:03.103Z,6.10
2023-09-17T21:30:31.496Z,6.30
2023-09-17T21:32:58.543Z,6.60
2023-09-17T21:35:25.775Z,6.80
2023-09-17T21:37:52.723Z,6.90
2023-09-17T21:40:20.022Z,7.20
2023-09-17T21:42:47.664Z,7.30
2023-09-17T21:45:14.967Z,7.90
2023-09-17T21:47:42.396Z,8.50
2023-09-17T21:50:10.950Z,8.10
2023-09-17T21:52:38.160Z,7.30
2023-09-17T21:55:05.726Z,6.60
2023-09-17T21:57:32.765Z,7.30
2023-09-17T21:59:59.966Z,7.20
2023-09-17T22:02:27.464Z,6.50
2023-09-17T22:04:54.678Z,7.80
2023-09-17T22:07:21.838Z,7.00
2023-09-17T22:09:49.041Z,7.20
2023-09-17T22:12:16.428Z,7.10
2023-09-17T22:14:43.549Z,6.90
2023-09-17T22:17:11.367Z,6.80
2023-09-17T22:19:41.226Z,7.20
2023-09-17T22:22:08.628Z,6.70
2023-09-17T22:24:36.035Z,7.50
2023-09-17T22:27:03.489Z,6.30
2023-09-17T22:29:30.712Z,7.40
2023-09-17T22:31:57.965Z,6.90
2023-09-17T22:34:24.797Z,6.60
2023-09-17T22:36:51.938Z,7.30
2023-09-17T22:39:19.372Z,7.50
2023-09-17T22:41:46.329Z,8.30
2023-09-17T22:44:23.853Z,7.10
2023-09-17T22:46:52.288Z,8.00
2023-09-17T22:49:19.600Z,6.80
2023-09-17T22:51:46.500Z,7.50
2023-09-17T22:54:13.292Z,8.10
2023-09-17T22:56:40.300Z,8.00
2023-09-17T22:59:07.455Z,7.60
2023-09-17T23:01:35.183Z,8.50
2023-09-17T23:04:02.448Z,7.10
2023-09-17T23:06:29.656Z,6.60
2023-09-17T23:09:02.034Z,7.40
2023-09-17T23:13:57.101Z,8.00
2023-09-17T23:16:24.087Z,8.20
2023-09-17T23:18:54.820Z,8.00
2023-09-17T23:21:22.327Z,7.10
2023-09-17T23:23:50.593Z,7.50
2023-09-17T23:26:17.904Z,8.10
2023-09-17T23:28:46.621Z,7.80
2023-09-17T23:31:13.626Z,7.50
2023-09-17T23:33:40.694Z,8.20
2023-09-17T23:36:07.876Z,7.90
2023-09-17T23:38:37.637Z,8.50
2023-09-17T23:41:05.878Z,8.20
2023-09-17T23:43:33.440Z,8.60
2023-09-17T23:46:00.745Z,7.80
2023-09-17T23:48:28.687Z,7.60
2023-09-17T23:50:55.768Z,7.50
2023-09-17T23:53:22.936Z,7.80
2023-09-17T23:55:50.321Z,7.70
2023-09-17T23:58:17.631Z,7.70
